»·PEaware :: SWA4576 KBUR-KOAK

SWA4576 :: KBUR-KOAK

FLIGHT INFORMATION

Flight Status: Arrived
Operator:
Southwest Airlines
More flights by this operator :: More flights under this callsign
Pilot: Patricio R. (14780)
Aircraft: BOEING 737-200
(B732)
More flights by this aircraft type
Origin: KBUR Bob Hope-Burbank
United States
Destination: KOAK Metro Oakland Intl
United States
More flights between these airports :: More routes between these airports
Route: VNY3 GMN PXN5
File this flight plan on PilotEdge
Remarks:
Altitude:
(Current/Filed)
30,000ft
Speed:
(Current/Filed)
447kts
Departed: 11-Aug-18 05:54 PM
Arrived: 11-Aug-18 06:50 PM
Distance/Time
Traveled:
282nm/0:56
Distance/Time
To Go:
Arrived

Flight Plot

Page will automatically refresh every two minutes.

Flight plan parsing failed; only flown route is shown


Map Options




Map Legend


Flown Route
Filed Route
Departure Airport
Arrival Airport
Navaid (VOR, NDB)
Fix

Horizontal Profiles

Position Reports

Time Latitude Longitude Heading Altitude Ground
Speed
11-Aug-18 17:35 34.196765 -118.351975 181 785ft 0kts
11-Aug-18 17:36 34.196765 -118.351975 181 785ft 0kts
11-Aug-18 17:37 34.196765 -118.351975 181 785ft 0kts
11-Aug-18 17:38 34.196765 -118.351975 181 785ft 0kts
11-Aug-18 17:39 34.196765 -118.351975 181 785ft 0kts
11-Aug-18 17:40 34.196765 -118.351975 180 785ft 0kts
11-Aug-18 17:41 34.196765 -118.351975 181 785ft 0kts
11-Aug-18 17:42 34.196776 -118.351974 181 785ft 1kts
11-Aug-18 17:43 34.197184 -118.351691 271 785ft 1kts
11-Aug-18 17:44 34.197180 -118.351617 270 785ft 0kts
11-Aug-18 17:45 34.197180 -118.351617 270 785ft 0kts
11-Aug-18 17:46 34.197182 -118.352109 271 785ft 10kts
11-Aug-18 17:47 34.200222 -118.355768 347 785ft 19kts
11-Aug-18 17:48 34.205401 -118.357197 347 785ft 20kts
11-Aug-18 17:49 34.211095 -118.358766 345 785ft 8kts
11-Aug-18 17:50 34.211564 -118.359054 316 785ft 0kts
11-Aug-18 17:51 34.211969 -118.360374 170 785ft 4kts
11-Aug-18 17:52 34.211919 -118.360361 167 785ft 0kts
11-Aug-18 17:53 34.211919 -118.360361 167 785ft 0kts
11-Aug-18 17:54 34.211919 -118.360361 167 785ft 0kts
11-Aug-18 17:55 34.208520 -118.359447 166 785ft 79kts
11-Aug-18 17:56 34.170481 -118.357765 220 2244ft 173kts
11-Aug-18 17:57 34.135145 -118.405854 249 4046ft 235kts
11-Aug-18 17:58 34.175020 -118.468338 350 6016ft 287kts
11-Aug-18 17:59 34.255229 -118.482789 352 8579ft 297kts
11-Aug-18 18:00 34.335539 -118.498834 352 11095ft 298kts
11-Aug-18 18:01 34.415978 -118.526110 324 13109ft 312kts
11-Aug-18 18:02 34.485853 -118.589063 326 15036ft 318kts
11-Aug-18 18:03 34.557939 -118.651005 326 16787ft 324kts
11-Aug-18 18:04 34.631329 -118.714545 326 18340ft 330kts
11-Aug-18 18:05 34.707001 -118.779159 326 19747ft 336kts
11-Aug-18 18:06 34.783994 -118.844715 324 21015ft 342kts
11-Aug-18 18:07 34.851123 -118.901894 324 21669ft 358kts
11-Aug-18 18:08 34.946768 -118.983708 324 22878ft 366kts
11-Aug-18 18:09 35.030808 -119.055757 323 23748ft 374kts
11-Aug-18 18:10 35.096069 -119.124162 307 24490ft 375kts
11-Aug-18 18:11 35.179873 -119.232886 319 25441ft 382kts
11-Aug-18 18:12 35.247958 -119.301334 319 26062ft 385kts
11-Aug-18 18:13 35.344875 -119.398479 319 26863ft 389kts
11-Aug-18 18:14 35.428750 -119.482715 318 27503ft 392kts
11-Aug-18 18:15 35.499241 -119.553686 318 27995ft 394kts
11-Aug-18 18:16 35.583961 -119.639207 318 28541ft 397kts
11-Aug-18 18:17 35.668533 -119.726299 317 29044ft 399kts
11-Aug-18 18:18 35.753424 -119.814539 314 29514ft 400kts
11-Aug-18 18:19 35.837635 -119.904388 318 29936ft 404kts
11-Aug-18 18:20 35.925778 -119.992236 319 29938ft 410kts
11-Aug-18 18:21 36.014831 -120.080074 319 29941ft 411kts
11-Aug-18 18:22 36.104134 -120.168281 319 29934ft 413kts
11-Aug-18 18:23 36.194104 -120.256005 319 29932ft 413kts
11-Aug-18 18:24 36.283344 -120.344418 319 29938ft 413kts
11-Aug-18 18:25 36.364627 -120.425449 319 29932ft 413kts
11-Aug-18 18:26 36.453477 -120.514352 319 29769ft 399kts
11-Aug-18 18:27 36.539217 -120.600238 319 27697ft 393kts
11-Aug-18 18:28 36.621140 -120.683364 318 26057ft 384kts
11-Aug-18 18:29 36.702577 -120.766423 319 24280ft 375kts
11-Aug-18 18:30 36.781915 -120.847872 319 22526ft 365kts
11-Aug-18 18:31 36.848471 -120.940591 309 20820ft 354kts
11-Aug-18 18:32 36.910984 -121.033049 310 19148ft 346kts
11-Aug-18 18:33 36.986036 -121.105071 324 17531ft 337kts
11-Aug-18 18:34 37.057477 -121.177125 314 16031ft 325kts
11-Aug-18 18:35 37.120757 -121.253045 315 14677ft 310kts
11-Aug-18 18:36 37.182658 -121.326255 315 12842ft 304kts
11-Aug-18 18:37 37.243045 -121.397885 316 10785ft 295kts
11-Aug-18 18:38 37.301546 -121.467462 315 9977ft 293kts
11-Aug-18 18:39 37.360084 -121.537360 315 9287ft 286kts
11-Aug-18 18:40 37.415880 -121.606970 305 7886ft 278kts
11-Aug-18 18:41 37.458678 -121.685590 303 6553ft 272kts
11-Aug-18 18:42 37.495725 -121.763278 284 5830ft 243kts
11-Aug-18 18:43 37.511135 -121.845957 283 4987ft 239kts
11-Aug-18 18:44 37.526066 -121.927059 283 4595ft 241kts
11-Aug-18 18:45 37.556863 -121.997672 308 4072ft 215kts
11-Aug-18 18:46 37.593492 -122.052763 308 3308ft 204kts
11-Aug-18 18:47 37.627073 -122.102894 308 2281ft 174kts
11-Aug-18 18:48 37.652997 -122.141558 308 1354ft 132kts
11-Aug-18 18:49 37.674984 -122.174252 308 839ft 132kts
11-Aug-18 18:50 37.698813 -122.210125 307 130ft 130kts
11-Aug-18 18:51 37.713779 -122.231193 338 15ft 12kts
11-Aug-18 18:52 37.712663 -122.227261 129 14ft 33kts
11-Aug-18 18:53 37.711824 -122.220250 130 15ft 23kts
11-Aug-18 18:54 37.709820 -122.214037 45 14ft 16kts
11-Aug-18 18:55 37.710531 -122.211930 84 14ft 0kts
11-Aug-18 18:56 37.710531 -122.211930 84 14ft 0kts

Navigation Log

Ident Type
Flight plan parsing failed, navigation log unavailable